sensor_id;sensor_type;location;lat;lon;timestamp;P1;durP1;ratioP1;P2;durP2;ratioP2
6561;SDS011;3314;50.890;4.722;2022-11-20T00:00:00;31.1;;;12.9;;
6561;SDS011;3314;50.890;4.722;2022-11-20T00:01:59;27.4;;;12.1;;
6561;SDS011;3314;50.890;4.722;2022-11-20T00:03:59;28.3;;;11.7;;
6561;SDS011;3314;50.890;4.722;2022-11-20T00:05:59;32.3;;;12.3;;
6561;SDS011;3314;50.890;4.722;2022-11-20T00:07:59;27.1;;;11.9;;
6561;SDS011;3314;50.890;4.722;2022-11-20T00:09:49;28.3;;;11.3;;
6561;SDS011;3314;50.890;4.722;2022-11-20T00:11:48;26.6;;;11.3;;
6561;SDS011;3314;50.890;4.722;2022-11-20T00:13:49;27.8;;;12.3;;
6561;SDS011;3314;50.890;4.722;2022-11-20T00:15:50;29.4;;;12.7;;
6561;SDS011;3314;50.890;4.722;2022-11-20T00:17:55;27.0;;;11.7;;
6561;SDS011;3314;50.890;4.722;2022-11-20T00:19:55;23.0;;;10.7;;
6561;SDS011;3314;50.890;4.722;2022-11-20T00:21:55;24.5;;;11.0;;
6561;SDS011;3314;50.890;4.722;2022-11-20T00:23:56;26.1;;;11.4;;
6561;SDS011;3314;50.890;4.722;2022-11-20T00:25:45;29.6;;;12.1;;
6561;SDS011;3314;50.890;4.722;2022-11-20T00:27:45;25.1;;;10.6;;
6561;SDS011;3314;50.890;4.722;2022-11-20T00:29:45;28.4;;;11.5;;
6561;SDS011;3314;50.890;4.722;2022-11-20T00:31:44;27.2;;;11.4;;
6561;SDS011;3314;50.890;4.722;2022-11-20T00:33:44;26.1;;;11.6;;
6561;SDS011;3314;50.890;4.722;2022-11-20T00:35:44;29.0;;;11.5;;
6561;SDS011;3314;50.890;4.722;2022-11-20T00:37:44;25.4;;;10.7;;
6561;SDS011;3314;50.890;4.722;2022-11-20T00:39:43;27.8;;;11.4;;
6561;SDS011;3314;50.890;4.722;2022-11-20T00:41:43;29.5;;;11.2;;
6561;SDS011;3314;50.890;4.722;2022-11-20T00:43:42;27.5;;;12.5;;
6561;SDS011;3314;50.890;4.722;2022-11-20T00:45:42;29.1;;;12.6;;
6561;SDS011;3314;50.890;4.722;2022-11-20T00:47:42;27.4;;;11.0;;
6561;SDS011;3314;50.890;4.722;2022-11-20T00:49:41;26.1;;;10.7;;
6561;SDS011;3314;50.890;4.722;2022-11-20T00:51:41;29.0;;;12.1;;
6561;SDS011;3314;50.890;4.722;2022-11-20T00:53:41;29.6;;;12.7;;
6561;SDS011;3314;50.890;4.722;2022-11-20T00:55:41;30.5;;;11.9;;
6561;SDS011;3314;50.890;4.722;2022-11-20T00:57:41;26.2;;;11.2;;
6561;SDS011;3314;50.890;4.722;2022-11-20T00:59:40;25.9;;;11.3;;
6561;SDS011;3314;50.890;4.722;2022-11-20T01:01:40;27.9;;;11.7;;
6561;SDS011;3314;50.890;4.722;2022-11-20T01:03:40;27.8;;;11.8;;
6561;SDS011;3314;50.890;4.722;2022-11-20T01:05:40;27.5;;;12.2;;
6561;SDS011;3314;50.890;4.722;2022-11-20T01:07:40;23.7;;;10.9;;
6561;SDS011;3314;50.890;4.722;2022-11-20T01:09:40;28.5;;;12.2;;
6561;SDS011;3314;50.890;4.722;2022-11-20T01:11:41;24.3;;;10.3;;
6561;SDS011;3314;50.890;4.722;2022-11-20T01:13:41;29.9;;;11.6;;
6561;SDS011;3314;50.890;4.722;2022-11-20T01:15:41;27.7;;;12.3;;
6561;SDS011;3314;50.890;4.722;2022-11-20T01:17:41;29.2;;;11.5;;
6561;SDS011;3314;50.890;4.722;2022-11-20T01:19:41;26.9;;;11.3;;
6561;SDS011;3314;50.890;4.722;2022-11-20T01:21:41;27.7;;;12.2;;
6561;SDS011;3314;50.890;4.722;2022-11-20T01:23:41;27.2;;;11.7;;
6561;SDS011;3314;50.890;4.722;2022-11-20T01:25:41;26.9;;;11.9;;
6561;SDS011;3314;50.890;4.722;2022-11-20T01:27:41;24.7;;;11.3;;
6561;SDS011;3314;50.890;4.722;2022-11-20T01:29:41;26.8;;;10.7;;
6561;SDS011;3314;50.890;4.722;2022-11-20T01:31:41;28.4;;;12.1;;
6561;SDS011;3314;50.890;4.722;2022-11-20T01:33:41;27.8;;;11.8;;
6561;SDS011;3314;50.890;4.722;2022-11-20T01:35:30;28.3;;;12.3;;
6561;SDS011;3314;50.890;4.722;2022-11-20T01:37:30;31.3;;;13.7;;
6561;SDS011;3314;50.890;4.722;2022-11-20T01:39:30;25.1;;;10.8;;
6561;SDS011;3314;50.890;4.722;2022-11-20T01:43:36;28.5;;;11.8;;
6561;SDS011;3314;50.890;4.722;2022-11-20T01:43:47;25.9;;;11.8;;
6561;SDS011;3314;50.890;4.722;2022-11-20T01:46:14;28.5;;;12.2;;
6561;SDS011;3314;50.890;4.722;2022-11-20T01:47:38;29.7;;;11.7;;
6561;SDS011;3314;50.890;4.722;2022-11-20T01:49:29;30.5;;;13.2;;
6561;SDS011;3314;50.890;4.722;2022-11-20T01:51:32;27.4;;;12.2;;
6561;SDS011;3314;50.890;4.722;2022-11-20T01:53:34;30.2;;;12.0;;
6561;SDS011;3314;50.890;4.722;2022-11-20T01:55:36;28.8;;;12.2;;
6561;SDS011;3314;50.890;4.722;2022-11-20T01:57:26;31.8;;;13.3;;
6561;SDS011;3314;50.890;4.722;2022-11-20T01:59:27;33.1;;;13.6;;
6561;SDS011;3314;50.890;4.722;2022-11-20T02:01:27;30.9;;;12.8;;
6561;SDS011;3314;50.890;4.722;2022-11-20T02:03:27;33.6;;;14.3;;
6561;SDS011;3314;50.890;4.722;2022-11-20T02:05:28;27.8;;;12.5;;
6561;SDS011;3314;50.890;4.722;2022-11-20T02:07:30;28.5;;;13.1;;
6561;SDS011;3314;50.890;4.722;2022-11-20T02:09:30;33.0;;;14.2;;
6561;SDS011;3314;50.890;4.722;2022-11-20T02:11:30;27.9;;;12.3;;
6561;SDS011;3314;50.890;4.722;2022-11-20T02:13:45;34.2;;;13.6;;
6561;SDS011;3314;50.890;4.722;2022-11-20T02:15:22;32.2;;;13.0;;
6561;SDS011;3314;50.890;4.722;2022-11-20T02:17:21;24.7;;;11.3;;
6561;SDS011;3314;50.890;4.722;2022-11-20T02:19:26;29.2;;;12.9;;
6561;SDS011;3314;50.890;4.722;2022-11-20T02:21:28;33.7;;;13.6;;
6561;SDS011;3314;50.890;4.722;2022-11-20T02:23:31;31.7;;;13.3;;
6561;SDS011;3314;50.890;4.722;2022-11-20T02:25:20;33.0;;;13.1;;
6561;SDS011;3314;50.890;4.722;2022-11-20T02:27:20;35.4;;;15.2;;
6561;SDS011;3314;50.890;4.722;2022-11-20T02:29:23;30.3;;;13.2;;
6561;SDS011;3314;50.890;4.722;2022-11-20T02:31:23;30.6;;;13.2;;
6561;SDS011;3314;50.890;4.722;2022-11-20T02:33:22;32.2;;;13.0;;
6561;SDS011;3314;50.890;4.722;2022-11-20T02:35:39;33.6;;;14.4;;
6561;SDS011;3314;50.890;4.722;2022-11-20T02:37:17;32.4;;;14.1;;
6561;SDS011;3314;50.890;4.722;2022-11-20T02:39:17;31.9;;;14.6;;
6561;SDS011;3314;50.890;4.722;2022-11-20T02:41:18;30.3;;;13.4;;
6561;SDS011;3314;50.890;4.722;2022-11-20T02:43:18;30.1;;;13.8;;
6561;SDS011;3314;50.890;4.722;2022-11-20T02:45:17;35.8;;;14.0;;
6561;SDS011;3314;50.890;4.722;2022-11-20T02:47:17;30.3;;;13.3;;
6561;SDS011;3314;50.890;4.722;2022-11-20T02:49:17;33.3;;;12.7;;
6561;SDS011;3314;50.890;4.722;2022-11-20T02:51:17;36.1;;;12.9;;
6561;SDS011;3314;50.890;4.722;2022-11-20T02:53:17;38.3;;;14.6;;
6561;SDS011;3314;50.890;4.722;2022-11-20T02:55:16;37.0;;;14.2;;
6561;SDS011;3314;50.890;4.722;2022-11-20T02:57:16;31.9;;;13.8;;
6561;SDS011;3314;50.890;4.722;2022-11-20T02:59:16;32.0;;;13.4;;
6561;SDS011;3314;50.890;4.722;2022-11-20T03:01:15;32.1;;;12.9;;
6561;SDS011;3314;50.890;4.722;2022-11-20T03:03:15;32.0;;;13.5;;
6561;SDS011;3314;50.890;4.722;2022-11-20T03:05:14;30.5;;;13.0;;
6561;SDS011;3314;50.890;4.722;2022-11-20T03:07:14;35.9;;;14.1;;
6561;SDS011;3314;50.890;4.722;2022-11-20T03:09:14;28.6;;;12.8;;
6561;SDS011;3314;50.890;4.722;2022-11-20T03:11:13;33.1;;;13.8;;
6561;SDS011;3314;50.890;4.722;2022-11-20T03:13:13;34.3;;;14.4;;
6561;SDS011;3314;50.890;4.722;2022-11-20T03:15:13;37.1;;;15.6;;
6561;SDS011;3314;50.890;4.722;2022-11-20T03:17:12;32.1;;;13.1;;
6561;SDS011;3314;50.890;4.722;2022-11-20T03:19:12;35.0;;;14.8;;
6561;SDS011;3314;50.890;4.722;2022-11-20T03:21:12;34.8;;;14.6;;
6561;SDS011;3314;50.890;4.722;2022-11-20T03:23:12;31.9;;;13.5;;
6561;SDS011;3314;50.890;4.722;2022-11-20T03:25:12;34.6;;;14.6;;
6561;SDS011;3314;50.890;4.722;2022-11-20T03:27:12;37.3;;;13.5;;
6561;SDS011;3314;50.890;4.722;2022-11-20T03:29:11;37.8;;;15.4;;
6561;SDS011;3314;50.890;4.722;2022-11-20T03:31:12;38.5;;;14.0;;
6561;SDS011;3314;50.890;4.722;2022-11-20T03:33:12;37.6;;;15.3;;
6561;SDS011;3314;50.890;4.722;2022-11-20T03:35:12;37.0;;;15.4;;
6561;SDS011;3314;50.890;4.722;2022-11-20T03:37:11;37.7;;;14.9;;
6561;SDS011;3314;50.890;4.722;2022-11-20T03:39:11;45.2;;;16.5;;
6561;SDS011;3314;50.890;4.722;2022-11-20T03:41:12;42.4;;;16.6;;
6561;SDS011;3314;50.890;4.722;2022-11-20T03:43:11;38.3;;;14.8;;
6561;SDS011;3314;50.890;4.722;2022-11-20T03:45:11;40.7;;;16.1;;
6561;SDS011;3314;50.890;4.722;2022-11-20T03:47:11;37.8;;;15.1;;
6561;SDS011;3314;50.890;4.722;2022-11-20T03:49:10;39.6;;;15.0;;
6561;SDS011;3314;50.890;4.722;2022-11-20T03:51:11;39.3;;;14.6;;
6561;SDS011;3314;50.890;4.722;2022-11-20T03:53:01;36.6;;;15.1;;
6561;SDS011;3314;50.890;4.722;2022-11-20T03:55:01;41.6;;;16.0;;
6561;SDS011;3314;50.890;4.722;2022-11-20T03:57:00;36.1;;;15.3;;
6561;SDS011;3314;50.890;4.722;2022-11-20T03:59:00;43.2;;;14.8;;
6561;SDS011;3314;50.890;4.722;2022-11-20T04:01:04;35.7;;;14.8;;
6561;SDS011;3314;50.890;4.722;2022-11-20T04:03:03;39.3;;;15.4;;
6561;SDS011;3314;50.890;4.722;2022-11-20T04:05:03;43.5;;;15.7;;
6561;SDS011;3314;50.890;4.722;2022-11-20T04:07:03;38.3;;;15.0;;
6561;SDS011;3314;50.890;4.722;2022-11-20T04:09:03;36.2;;;15.9;;
6561;SDS011;3314;50.890;4.722;2022-11-20T04:11:11;38.7;;;14.7;;
6561;SDS011;3314;50.890;4.722;2022-11-20T04:12:59;43.2;;;15.3;;
6561;SDS011;3314;50.890;4.722;2022-11-20T04:14:58;40.6;;;15.2;;
6561;SDS011;3314;50.890;4.722;2022-11-20T04:16:58;34.3;;;14.3;;
6561;SDS011;3314;50.890;4.722;2022-11-20T04:18:58;39.7;;;15.1;;
6561;SDS011;3314;50.890;4.722;2022-11-20T04:20:59;38.4;;;14.8;;
6561;SDS011;3314;50.890;4.722;2022-11-20T04:22:58;36.8;;;14.2;;
6561;SDS011;3314;50.890;4.722;2022-11-20T04:24:58;35.9;;;14.5;;
6561;SDS011;3314;50.890;4.722;2022-11-20T04:26:58;36.6;;;14.3;;
6561;SDS011;3314;50.890;4.722;2022-11-20T04:28:57;33.9;;;13.3;;
6561;SDS011;3314;50.890;4.722;2022-11-20T04:31:05;41.5;;;15.6;;
6561;SDS011;3314;50.890;4.722;2022-11-20T04:32:53;37.0;;;15.3;;
6561;SDS011;3314;50.890;4.722;2022-11-20T04:34:53;37.0;;;15.2;;
6561;SDS011;3314;50.890;4.722;2022-11-20T04:36:52;35.2;;;13.7;;
6561;SDS011;3314;50.890;4.722;2022-11-20T04:38:52;34.0;;;14.1;;
6561;SDS011;3314;50.890;4.722;2022-11-20T04:40:55;39.7;;;15.8;;
6561;SDS011;3314;50.890;4.722;2022-11-20T04:42:55;31.1;;;13.6;;
6561;SDS011;3314;50.890;4.722;2022-11-20T04:44:55;38.5;;;14.6;;
6561;SDS011;3314;50.890;4.722;2022-11-20T04:46:55;40.5;;;15.6;;
6561;SDS011;3314;50.890;4.722;2022-11-20T04:48:54;34.3;;;14.4;;
6561;SDS011;3314;50.890;4.722;2022-11-20T04:50:54;34.2;;;14.0;;
6561;SDS011;3314;50.890;4.722;2022-11-20T04:52:54;37.2;;;15.2;;
6561;SDS011;3314;50.890;4.722;2022-11-20T04:54:53;37.1;;;14.4;;
6561;SDS011;3314;50.890;4.722;2022-11-20T04:56:53;37.2;;;14.8;;
6561;SDS011;3314;50.890;4.722;2022-11-20T04:58:53;39.8;;;14.7;;
6561;SDS011;3314;50.890;4.722;2022-11-20T05:00:52;39.5;;;15.2;;
6561;SDS011;3314;50.890;4.722;2022-11-20T05:02:52;38.4;;;15.4;;
6561;SDS011;3314;50.890;4.722;2022-11-20T05:04:51;35.1;;;14.6;;
6561;SDS011;3314;50.890;4.722;2022-11-20T05:06:51;33.6;;;13.7;;
6561;SDS011;3314;50.890;4.722;2022-11-20T05:08:51;40.0;;;14.8;;
6561;SDS011;3314;50.890;4.722;2022-11-20T05:10:50;37.6;;;14.3;;
6561;SDS011;3314;50.890;4.722;2022-11-20T05:12:50;32.5;;;14.3;;
6561;SDS011;3314;50.890;4.722;2022-11-20T05:14:50;31.7;;;13.1;;
6561;SDS011;3314;50.890;4.722;2022-11-20T05:16:50;34.4;;;13.7;;
6561;SDS011;3314;50.890;4.722;2022-11-20T05:18:50;40.1;;;14.9;;
6561;SDS011;3314;50.890;4.722;2022-11-20T05:20:54;35.4;;;15.6;;
6561;SDS011;3314;50.890;4.722;2022-11-20T05:22:42;33.2;;;12.7;;
6561;SDS011;3314;50.890;4.722;2022-11-20T05:24:42;37.4;;;14.7;;
6561;SDS011;3314;50.890;4.722;2022-11-20T05:26:41;33.5;;;14.0;;
6561;SDS011;3314;50.890;4.722;2022-11-20T05:28:41;35.7;;;13.9;;
6561;SDS011;3314;50.890;4.722;2022-11-20T05:30:41;34.0;;;14.5;;
6561;SDS011;3314;50.890;4.722;2022-11-20T05:32:40;34.1;;;13.6;;
6561;SDS011;3314;50.890;4.722;2022-11-20T05:34:40;36.3;;;14.3;;
6561;SDS011;3314;50.890;4.722;2022-11-20T05:36:40;44.2;;;13.3;;
6561;SDS011;3314;50.890;4.722;2022-11-20T05:38:39;34.7;;;14.3;;
6561;SDS011;3314;50.890;4.722;2022-11-20T05:40:39;34.1;;;14.3;;
6561;SDS011;3314;50.890;4.722;2022-11-20T05:42:39;32.2;;;12.4;;
6561;SDS011;3314;50.890;4.722;2022-11-20T05:44:39;36.2;;;14.1;;
6561;SDS011;3314;50.890;4.722;2022-11-20T05:46:38;36.3;;;13.9;;
6561;SDS011;3314;50.890;4.722;2022-11-20T05:48:38;37.0;;;14.8;;
6561;SDS011;3314;50.890;4.722;2022-11-20T05:50:38;32.5;;;14.0;;
6561;SDS011;3314;50.890;4.722;2022-11-20T05:52:38;38.7;;;15.3;;
6561;SDS011;3314;50.890;4.722;2022-11-20T05:54:38;33.6;;;14.5;;
6561;SDS011;3314;50.890;4.722;2022-11-20T05:56:37;38.3;;;14.5;;
6561;SDS011;3314;50.890;4.722;2022-11-20T05:58:37;41.6;;;15.0;;
6561;SDS011;3314;50.890;4.722;2022-11-20T06:00:37;39.1;;;15.4;;
6561;SDS011;3314;50.890;4.722;2022-11-20T06:02:37;35.4;;;14.2;;
6561;SDS011;3314;50.890;4.722;2022-11-20T06:04:36;35.0;;;13.7;;
6561;SDS011;3314;50.890;4.722;2022-11-20T06:06:36;33.1;;;13.6;;
6561;SDS011;3314;50.890;4.722;2022-11-20T06:08:36;32.9;;;12.8;;
6561;SDS011;3314;50.890;4.722;2022-11-20T06:10:35;34.0;;;13.5;;
6561;SDS011;3314;50.890;4.722;2022-11-20T06:12:35;31.4;;;14.0;;
6561;SDS011;3314;50.890;4.722;2022-11-20T06:14:35;37.4;;;15.0;;
6561;SDS011;3314;50.890;4.722;2022-11-20T06:16:34;36.3;;;14.2;;
6561;SDS011;3314;50.890;4.722;2022-11-20T06:18:34;30.0;;;13.5;;
6561;SDS011;3314;50.890;4.722;2022-11-20T06:20:34;39.0;;;15.7;;
6561;SDS011;3314;50.890;4.722;2022-11-20T06:22:33;35.2;;;12.7;;
6561;SDS011;3314;50.890;4.722;2022-11-20T06:24:33;34.4;;;12.6;;
6561;SDS011;3314;50.890;4.722;2022-11-20T06:26:32;30.4;;;13.2;;
6561;SDS011;3314;50.890;4.722;2022-11-20T06:28:32;32.1;;;12.7;;
6561;SDS011;3314;50.890;4.722;2022-11-20T06:30:32;38.1;;;13.8;;
6561;SDS011;3314;50.890;4.722;2022-11-20T06:32:32;28.5;;;11.5;;
6561;SDS011;3314;50.890;4.722;2022-11-20T06:34:32;33.2;;;12.7;;
6561;SDS011;3314;50.890;4.722;2022-11-20T06:36:32;32.7;;;12.6;;
6561;SDS011;3314;50.890;4.722;2022-11-20T06:38:31;35.1;;;11.7;;
6561;SDS011;3314;50.890;4.722;2022-11-20T06:40:31;36.0;;;12.6;;
6561;SDS011;3314;50.890;4.722;2022-11-20T06:42:31;32.7;;;12.0;;
6561;SDS011;3314;50.890;4.722;2022-11-20T06:44:31;34.9;;;13.5;;
6561;SDS011;3314;50.890;4.722;2022-11-20T06:46:31;32.7;;;12.6;;
6561;SDS011;3314;50.890;4.722;2022-11-20T06:48:31;36.3;;;14.0;;
6561;SDS011;3314;50.890;4.722;2022-11-20T06:50:31;33.6;;;12.8;;
6561;SDS011;3314;50.890;4.722;2022-11-20T06:52:30;38.4;;;13.7;;
6561;SDS011;3314;50.890;4.722;2022-11-20T06:54:30;33.7;;;12.5;;
6561;SDS011;3314;50.890;4.722;2022-11-20T06:56:29;37.3;;;13.9;;
6561;SDS011;3314;50.890;4.722;2022-11-20T06:58:30;37.8;;;13.8;;
6561;SDS011;3314;50.890;4.722;2022-11-20T07:00:30;42.3;;;14.4;;
6561;SDS011;3314;50.890;4.722;2022-11-20T07:02:29;43.5;;;13.9;;
6561;SDS011;3314;50.890;4.722;2022-11-20T07:04:29;44.6;;;14.5;;
6561;SDS011;3314;50.890;4.722;2022-11-20T07:06:29;42.0;;;15.4;;
6561;SDS011;3314;50.890;4.722;2022-11-20T07:08:29;39.5;;;14.9;;
6561;SDS011;3314;50.890;4.722;2022-11-20T07:10:28;40.9;;;15.4;;
6561;SDS011;3314;50.890;4.722;2022-11-20T07:12:28;41.3;;;14.0;;
6561;SDS011;3314;50.890;4.722;2022-11-20T07:14:28;43.8;;;14.1;;
6561;SDS011;3314;50.890;4.722;2022-11-20T07:16:27;43.1;;;14.7;;
6561;SDS011;3314;50.890;4.722;2022-11-20T07:18:27;50.7;;;16.2;;
6561;SDS011;3314;50.890;4.722;2022-11-20T07:20:27;48.2;;;16.3;;
6561;SDS011;3314;50.890;4.722;2022-11-20T07:22:17;44.6;;;16.2;;
6561;SDS011;3314;50.890;4.722;2022-11-20T07:24:16;47.6;;;16.2;;
6561;SDS011;3314;50.890;4.722;2022-11-20T07:26:16;46.5;;;15.3;;
6561;SDS011;3314;50.890;4.722;2022-11-20T07:28:16;45.4;;;16.4;;
6561;SDS011;3314;50.890;4.722;2022-11-20T07:30:15;45.4;;;15.2;;
6561;SDS011;3314;50.890;4.722;2022-11-20T07:32:15;46.7;;;16.2;;
6561;SDS011;3314;50.890;4.722;2022-11-20T07:34:15;53.2;;;18.1;;
6561;SDS011;3314;50.890;4.722;2022-11-20T07:36:14;43.7;;;16.0;;
6561;SDS011;3314;50.890;4.722;2022-11-20T07:38:14;52.2;;;15.0;;
6561;SDS011;3314;50.890;4.722;2022-11-20T07:40:14;52.1;;;16.2;;
6561;SDS011;3314;50.890;4.722;2022-11-20T07:42:14;51.0;;;17.3;;
6561;SDS011;3314;50.890;4.722;2022-11-20T07:44:14;51.2;;;16.2;;
6561;SDS011;3314;50.890;4.722;2022-11-20T07:46:13;50.7;;;17.0;;
6561;SDS011;3314;50.890;4.722;2022-11-20T07:48:13;45.7;;;15.4;;
6561;SDS011;3314;50.890;4.722;2022-11-20T07:50:13;42.1;;;14.8;;
6561;SDS011;3314;50.890;4.722;2022-11-20T07:52:12;49.4;;;15.8;;
6561;SDS011;3314;50.890;4.722;2022-11-20T07:54:12;45.4;;;15.4;;
6561;SDS011;3314;50.890;4.722;2022-11-20T07:56:12;50.1;;;15.8;;
6561;SDS011;3314;50.890;4.722;2022-11-20T07:58:11;45.1;;;15.0;;
6561;SDS011;3314;50.890;4.722;2022-11-20T08:00:11;52.6;;;17.7;;
6561;SDS011;3314;50.890;4.722;2022-11-20T08:02:11;54.2;;;15.9;;
6561;SDS011;3314;50.890;4.722;2022-11-20T08:04:11;51.2;;;17.5;;
6561;SDS011;3314;50.890;4.722;2022-11-20T08:06:11;59.0;;;17.9;;
6561;SDS011;3314;50.890;4.722;2022-11-20T08:08:11;53.9;;;16.9;;
6561;SDS011;3314;50.890;4.722;2022-11-20T08:10:11;53.5;;;16.7;;
6561;SDS011;3314;50.890;4.722;2022-11-20T08:14:17;50.9;;;16.3;;
6561;SDS011;3314;50.890;4.722;2022-11-20T08:14:29;49.2;;;15.3;;
6561;SDS011;3314;50.890;4.722;2022-11-20T08:16:05;49.7;;;16.5;;
6561;SDS011;3314;50.890;4.722;2022-11-20T08:18:06;48.6;;;14.9;;
6561;SDS011;3314;50.890;4.722;2022-11-20T08:20:06;51.2;;;16.4;;
6561;SDS011;3314;50.890;4.722;2022-11-20T08:22:06;49.0;;;16.8;;
6561;SDS011;3314;50.890;4.722;2022-11-20T08:24:06;49.4;;;16.0;;
6561;SDS011;3314;50.890;4.722;2022-11-20T08:26:05;51.3;;;16.6;;
6561;SDS011;3314;50.890;4.722;2022-11-20T08:28:06;49.2;;;15.3;;
6561;SDS011;3314;50.890;4.722;2022-11-20T08:30:06;49.9;;;18.1;;
6561;SDS011;3314;50.890;4.722;2022-11-20T08:32:06;52.6;;;16.1;;
6561;SDS011;3314;50.890;4.722;2022-11-20T08:34:06;48.6;;;16.9;;
6561;SDS011;3314;50.890;4.722;2022-11-20T08:36:06;47.4;;;17.4;;
6561;SDS011;3314;50.890;4.722;2022-11-20T08:38:05;47.9;;;15.0;;
6561;SDS011;3314;50.890;4.722;2022-11-20T08:40:06;52.7;;;17.9;;
6561;SDS011;3314;50.890;4.722;2022-11-20T08:42:06;49.1;;;15.1;;
6561;SDS011;3314;50.890;4.722;2022-11-20T08:44:07;56.6;;;17.8;;
6561;SDS011;3314;50.890;4.722;2022-11-20T08:46:06;49.4;;;17.0;;
6561;SDS011;3314;50.890;4.722;2022-11-20T08:48:06;64.2;;;18.4;;
6561;SDS011;3314;50.890;4.722;2022-11-20T08:50:06;50.5;;;16.3;;
6561;SDS011;3314;50.890;4.722;2022-11-20T08:52:06;51.5;;;16.5;;
6561;SDS011;3314;50.890;4.722;2022-11-20T08:54:06;53.5;;;17.2;;
6561;SDS011;3314;50.890;4.722;2022-11-20T08:56:06;54.6;;;16.7;;
6561;SDS011;3314;50.890;4.722;2022-11-20T08:58:06;52.5;;;17.8;;
6561;SDS011;3314;50.890;4.722;2022-11-20T09:00:07;45.4;;;16.1;;
6561;SDS011;3314;50.890;4.722;2022-11-20T09:01:56;44.9;;;16.3;;
6561;SDS011;3314;50.890;4.722;2022-11-20T09:03:56;47.3;;;15.8;;
6561;SDS011;3314;50.890;4.722;2022-11-20T09:05:57;52.2;;;16.3;;
6561;SDS011;3314;50.890;4.722;2022-11-20T09:07:57;50.0;;;16.7;;
6561;SDS011;3314;50.890;4.722;2022-11-20T09:09:57;45.2;;;14.4;;
6561;SDS011;3314;50.890;4.722;2022-11-20T09:11:57;52.7;;;16.0;;
6561;SDS011;3314;50.890;4.722;2022-11-20T09:13:56;48.0;;;15.6;;
6561;SDS011;3314;50.890;4.722;2022-11-20T09:15:57;50.7;;;15.5;;
6561;SDS011;3314;50.890;4.722;2022-11-20T09:17:59;43.7;;;15.6;;
6561;SDS011;3314;50.890;4.722;2022-11-20T09:19:59;54.6;;;16.9;;
6561;SDS011;3314;50.890;4.722;2022-11-20T09:22:00;49.3;;;16.7;;
6561;SDS011;3314;50.890;4.722;2022-11-20T09:24:00;53.0;;;19.2;;
6561;SDS011;3314;50.890;4.722;2022-11-20T09:26:01;48.9;;;15.1;;
6561;SDS011;3314;50.890;4.722;2022-11-20T09:27:54;42.7;;;15.1;;
6561;SDS011;3314;50.890;4.722;2022-11-20T09:29:54;50.0;;;15.2;;
6561;SDS011;3314;50.890;4.722;2022-11-20T09:31:54;48.9;;;15.6;;
6561;SDS011;3314;50.890;4.722;2022-11-20T09:33:53;42.4;;;15.6;;
6561;SDS011;3314;50.890;4.722;2022-11-20T09:35:53;47.4;;;15.1;;
6561;SDS011;3314;50.890;4.722;2022-11-20T09:37:53;58.7;;;17.4;;
6561;SDS011;3314;50.890;4.722;2022-11-20T09:39:52;43.3;;;14.9;;
6561;SDS011;3314;50.890;4.722;2022-11-20T09:41:56;50.5;;;15.8;;
6561;SDS011;3314;50.890;4.722;2022-11-20T09:43:50;54.3;;;14.7;;
6561;SDS011;3314;50.890;4.722;2022-11-20T09:46:00;50.6;;;14.9;;
6561;SDS011;3314;50.890;4.722;2022-11-20T09:47:53;43.8;;;14.8;;
6561;SDS011;3314;50.890;4.722;2022-11-20T09:49:52;48.4;;;15.8;;
6561;SDS011;3314;50.890;4.722;2022-11-20T09:51:57;47.2;;;15.3;;
6561;SDS011;3314;50.890;4.722;2022-11-20T09:53:49;48.5;;;15.9;;
6561;SDS011;3314;50.890;4.722;2022-11-20T09:55:51;43.8;;;13.7;;
6561;SDS011;3314;50.890;4.722;2022-11-20T09:57:51;50.4;;;15.2;;
6561;SDS011;3314;50.890;4.722;2022-11-20T09:59:53;47.7;;;14.5;;
6561;SDS011;3314;50.890;4.722;2022-11-20T10:01:54;44.4;;;13.8;;
6561;SDS011;3314;50.890;4.722;2022-11-20T10:03:48;47.3;;;14.4;;
6561;SDS011;3314;50.890;4.722;2022-11-20T10:05:50;40.2;;;13.3;;
6561;SDS011;3314;50.890;4.722;2022-11-20T10:07:52;44.5;;;14.0;;
6561;SDS011;3314;50.890;4.722;2022-11-20T10:09:53;41.3;;;13.4;;
6561;SDS011;3314;50.890;4.722;2022-11-20T10:11:45;38.9;;;12.9;;
6561;SDS011;3314;50.890;4.722;2022-11-20T10:13:47;37.7;;;12.9;;
6561;SDS011;3314;50.890;4.722;2022-11-20T10:15:53;32.9;;;12.0;;
6561;SDS011;3314;50.890;4.722;2022-11-20T10:17:49;40.3;;;13.0;;
6561;SDS011;3314;50.890;4.722;2022-11-20T10:19:44;36.4;;;12.2;;
6561;SDS011;3314;50.890;4.722;2022-11-20T10:21:50;37.4;;;12.9;;
6561;SDS011;3314;50.890;4.722;2022-11-20T10:23:47;38.3;;;12.7;;
6561;SDS011;3314;50.890;4.722;2022-11-20T10:25:50;35.5;;;13.5;;
6561;SDS011;3314;50.890;4.722;2022-11-20T10:27:43;33.1;;;12.6;;
6561;SDS011;3314;50.890;4.722;2022-11-20T10:29:47;32.0;;;10.0;;
6561;SDS011;3314;50.890;4.722;2022-11-20T10:31:40;34.7;;;12.2;;
6561;SDS011;3314;50.890;4.722;2022-11-20T10:33:40;40.5;;;12.0;;
6561;SDS011;3314;50.890;4.722;2022-11-20T10:35:41;35.5;;;11.8;;
6561;SDS011;3314;50.890;4.722;2022-11-20T10:37:44;30.0;;;10.8;;
6561;SDS011;3314;50.890;4.722;2022-11-20T10:39:46;35.1;;;12.7;;
6561;SDS011;3314;50.890;4.722;2022-11-20T10:41:38;40.5;;;11.8;;
6561;SDS011;3314;50.890;4.722;2022-11-20T10:43:39;34.0;;;11.8;;
6561;SDS011;3314;50.890;4.722;2022-11-20T10:45:56;33.1;;;11.3;;
6561;SDS011;3314;50.890;4.722;2022-11-20T10:47:44;27.3;;;10.1;;
6561;SDS011;3314;50.890;4.722;2022-11-20T10:49:45;33.3;;;11.2;;
6561;SDS011;3314;50.890;4.722;2022-11-20T10:51:35;34.4;;;10.4;;
6561;SDS011;3314;50.890;4.722;2022-11-20T10:53:40;34.9;;;10.8;;
6561;SDS011;3314;50.890;4.722;2022-11-20T10:55:43;27.8;;;10.0;;
6561;SDS011;3314;50.890;4.722;2022-11-20T10:57:47;29.9;;;11.0;;
6561;SDS011;3314;50.890;4.722;2022-11-20T10:59:41;31.5;;;11.2;;
6561;SDS011;3314;50.890;4.722;2022-11-20T11:01:39;28.3;;;9.8;;
6561;SDS011;3314;50.890;4.722;2022-11-20T11:03:39;24.7;;;9.2;;
6561;SDS011;3314;50.890;4.722;2022-11-20T11:05:40;25.9;;;9.4;;
6561;SDS011;3314;50.890;4.722;2022-11-20T11:07:40;22.5;;;8.7;;
6561;SDS011;3314;50.890;4.722;2022-11-20T11:09:43;27.1;;;8.8;;
6561;SDS011;3314;50.890;4.722;2022-11-20T11:11:31;26.2;;;8.3;;
6561;SDS011;3314;50.890;4.722;2022-11-20T11:13:32;18.2;;;7.9;;
6561;SDS011;3314;50.890;4.722;2022-11-20T11:15:37;21.2;;;7.1;;
6561;SDS011;3314;50.890;4.722;2022-11-20T11:17:37;21.7;;;6.7;;
6561;SDS011;3314;50.890;4.722;2022-11-20T11:19:33;16.0;;;6.1;;
6561;SDS011;3314;50.890;4.722;2022-11-20T11:21:32;18.9;;;6.2;;
6561;SDS011;3314;50.890;4.722;2022-11-20T11:23:34;20.6;;;6.3;;
6561;SDS011;3314;50.890;4.722;2022-11-20T11:25:35;18.9;;;5.8;;
6561;SDS011;3314;50.890;4.722;2022-11-20T11:27:35;17.5;;;5.0;;
6561;SDS011;3314;50.890;4.722;2022-11-20T11:29:33;17.4;;;5.6;;
6561;SDS011;3314;50.890;4.722;2022-11-20T11:31:33;22.0;;;6.4;;
6561;SDS011;3314;50.890;4.722;2022-11-20T11:33:34;16.2;;;4.6;;
6561;SDS011;3314;50.890;4.722;2022-11-20T11:35:38;16.3;;;4.6;;
6561;SDS011;3314;50.890;4.722;2022-11-20T11:37:26;13.2;;;4.6;;
6561;SDS011;3314;50.890;4.722;2022-11-20T11:39:29;14.4;;;4.5;;
6561;SDS011;3314;50.890;4.722;2022-11-20T11:41:32;13.8;;;4.6;;
6561;SDS011;3314;50.890;4.722;2022-11-20T11:45:39;15.0;;;4.3;;
6561;SDS011;3314;50.890;4.722;2022-11-20T11:45:52;18.3;;;4.9;;
6561;SDS011;3314;50.890;4.722;2022-11-20T11:47:29;10.9;;;4.2;;
6561;SDS011;3314;50.890;4.722;2022-11-20T11:49:29;12.7;;;4.3;;
6561;SDS011;3314;50.890;4.722;2022-11-20T11:51:33;10.5;;;3.5;;
6561;SDS011;3314;50.890;4.722;2022-11-20T11:53:23;14.9;;;3.9;;
6561;SDS011;3314;50.890;4.722;2022-11-20T11:55:28;8.4;;;3.1;;
6561;SDS011;3314;50.890;4.722;2022-11-20T11:57:29;13.2;;;3.1;;
6561;SDS011;3314;50.890;4.722;2022-11-20T11:59:33;10.5;;;2.9;;
6561;SDS011;3314;50.890;4.722;2022-11-20T12:01:29;15.2;;;2.8;;
6561;SDS011;3314;50.890;4.722;2022-11-20T12:03:34;10.6;;;2.8;;
6561;SDS011;3314;50.890;4.722;2022-11-20T12:05:23;9.8;;;3.0;;
6561;SDS011;3314;50.890;4.722;2022-11-20T12:07:27;11.2;;;2.2;;
6561;SDS011;3314;50.890;4.722;2022-11-20T12:09:32;10.9;;;2.3;;
6561;SDS011;3314;50.890;4.722;2022-11-20T12:11:23;8.8;;;2.3;;
6561;SDS011;3314;50.890;4.722;2022-11-20T12:13:32;11.9;;;2.1;;
6561;SDS011;3314;50.890;4.722;2022-11-20T12:15:25;9.9;;;2.5;;
6561;SDS011;3314;50.890;4.722;2022-11-20T12:17:25;14.0;;;2.5;;
6561;SDS011;3314;50.890;4.722;2022-11-20T12:19:25;9.7;;;2.4;;
6561;SDS011;3314;50.890;4.722;2022-11-20T12:21:30;8.2;;;2.1;;
6561;SDS011;3314;50.890;4.722;2022-11-20T12:23:21;13.4;;;2.0;;